createdAt,value
2018-04-10T00:00:20.298Z,17.80
2018-04-10T00:01:20.232Z,17.90
2018-04-10T00:02:20.177Z,18.40
2018-04-10T00:03:20.111Z,18.70
2018-04-10T00:04:20.044Z,19.40
2018-04-10T00:05:19.987Z,19.30
2018-04-10T00:06:19.931Z,18.90
2018-04-10T00:07:19.866Z,18.90
2018-04-10T00:08:19.803Z,19.20
2018-04-10T00:09:19.739Z,19.40
2018-04-10T00:10:19.680Z,19.30
2018-04-10T00:11:19.619Z,18.70
2018-04-10T00:12:19.554Z,19.50
2018-04-10T00:13:19.494Z,19.10
2018-04-10T00:14:19.435Z,19.10
2018-04-10T00:15:19.368Z,19.80
2018-04-10T00:16:19.304Z,20.20
2018-04-10T00:17:19.248Z,20.70
2018-04-10T00:18:19.179Z,19.10
2018-04-10T00:19:19.120Z,19.70
2018-04-10T00:20:19.066Z,19.30
2018-04-10T00:21:19.002Z,20.10
2018-04-10T00:22:18.933Z,21.20
2018-04-10T00:23:18.875Z,21.30
2018-04-10T00:24:18.817Z,19.80
2018-04-10T00:25:18.750Z,21.10
2018-04-10T00:26:18.685Z,20.00
2018-04-10T00:27:18.624Z,20.20
2018-04-10T00:28:18.560Z,20.80
2018-04-10T00:29:18.497Z,20.70
2018-04-10T00:30:18.438Z,21.70
2018-04-10T00:31:18.374Z,19.90
2018-04-10T00:32:18.318Z,21.80
2018-04-10T00:33:18.255Z,21.10
2018-04-10T00:34:18.200Z,22.70
2018-04-10T00:35:18.132Z,20.40
2018-04-10T00:36:18.065Z,21.30
2018-04-10T00:37:18.042Z,21.40
2018-04-10T00:38:17.940Z,21.20
2018-04-10T00:39:17.885Z,21.70
2018-04-10T00:40:17.826Z,22.20
2018-04-10T00:41:17.758Z,21.50
2018-04-10T00:42:17.697Z,22.40
2018-04-10T00:43:17.637Z,22.30
2018-04-10T00:44:17.571Z,22.30
2018-04-10T00:45:17.514Z,22.10
2018-04-10T00:46:17.444Z,22.70
2018-04-10T00:47:17.402Z,23.20
2018-04-10T00:48:17.323Z,22.00
2018-04-10T00:49:17.271Z,22.30
2018-04-10T00:50:17.203Z,22.20
2018-04-10T00:51:17.138Z,23.20
2018-04-10T00:52:17.083Z,22.10
2018-04-10T00:53:17.015Z,23.60
2018-04-10T00:54:16.956Z,21.80
2018-04-10T00:55:16.888Z,23.30
2018-04-10T00:56:16.819Z,23.30
2018-04-10T00:57:16.763Z,22.80
2018-04-10T00:58:16.704Z,21.80
2018-04-10T00:59:17.248Z,23.40
2018-04-10T01:00:16.576Z,23.60
2018-04-10T01:01:16.516Z,23.10
2018-04-10T01:02:16.452Z,23.20
2018-04-10T01:03:16.389Z,23.20
2018-04-10T01:04:16.328Z,24.00
2018-04-10T01:05:16.265Z,23.30
2018-04-10T01:06:16.206Z,24.20
2018-04-10T01:07:16.141Z,23.00
2018-04-10T01:08:16.074Z,23.70
2018-04-10T01:09:16.013Z,23.40
2018-04-10T01:10:15.951Z,24.10
2018-04-10T01:11:15.893Z,23.00
2018-04-10T01:12:15.835Z,22.70
2018-04-10T01:13:15.767Z,23.10
2018-04-10T01:14:15.701Z,25.10
2018-04-10T01:15:15.643Z,24.40
2018-04-10T01:16:15.580Z,23.40
2018-04-10T01:17:15.518Z,23.80
2018-04-10T01:18:15.459Z,24.10
2018-04-10T01:19:15.398Z,24.50
2018-04-10T01:20:15.326Z,24.80
2018-04-10T01:21:15.272Z,25.00
2018-04-10T01:22:15.212Z,25.60
2018-04-10T01:23:15.142Z,25.00
2018-04-10T01:24:15.081Z,25.10
2018-04-10T01:25:15.021Z,25.00
2018-04-10T01:26:14.957Z,24.60
2018-04-10T01:27:14.897Z,23.40
2018-04-10T01:28:14.828Z,24.70
2018-04-10T01:29:14.770Z,24.80
2018-04-10T01:30:14.706Z,24.60
2018-04-10T01:31:14.645Z,25.10
2018-04-10T01:32:14.584Z,23.70
2018-04-10T01:33:14.520Z,25.20
2018-04-10T01:34:14.456Z,25.90
2018-04-10T01:35:14.397Z,24.30
2018-04-10T01:36:14.335Z,26.10
2018-04-10T01:37:14.270Z,25.00
2018-04-10T01:38:14.208Z,25.60
2018-04-10T01:39:14.150Z,26.90
2018-04-10T01:40:14.082Z,27.10
2018-04-10T01:41:14.018Z,25.40
2018-04-10T01:42:13.957Z,27.40
2018-04-10T01:43:13.895Z,25.40
2018-04-10T01:44:13.836Z,26.30
2018-04-10T01:45:13.784Z,26.90
2018-04-10T01:46:13.714Z,25.70
2018-04-10T01:47:13.648Z,25.50
2018-04-10T01:48:13.584Z,24.80
2018-04-10T01:49:13.522Z,26.30
2018-04-10T01:50:13.463Z,26.90
2018-04-10T01:51:13.401Z,26.00
2018-04-10T01:52:13.330Z,27.30
2018-04-10T01:53:13.278Z,26.40
2018-04-10T01:54:13.217Z,25.50
2018-04-10T01:55:13.150Z,26.70
2018-04-10T01:56:13.089Z,25.90
2018-04-10T01:57:13.020Z,28.70
2018-04-10T01:58:12.967Z,26.70
2018-04-10T01:59:12.901Z,26.20
2018-04-10T02:00:12.831Z,26.00
2018-04-10T02:01:12.774Z,26.30
2018-04-10T02:02:12.716Z,27.30
2018-04-10T02:03:12.649Z,27.00
2018-04-10T02:04:12.580Z,26.60
2018-04-10T02:05:12.524Z,27.60
2018-04-10T02:06:12.459Z,26.90
2018-04-10T02:07:12.405Z,27.30
2018-04-10T02:08:12.355Z,28.40
2018-04-10T02:09:12.271Z,28.30
2018-04-10T02:16:25.358Z,28.00
2018-04-10T02:17:25.257Z,27.30
2018-04-10T02:19:19.676Z,27.00
2018-04-10T02:20:19.460Z,27.30
2018-04-10T02:22:13.763Z,27.30
2018-04-10T02:23:13.665Z,28.30
2018-04-10T02:25:07.014Z,27.30
2018-04-10T02:26:06.875Z,28.30
2018-04-10T02:28:01.176Z,27.50
2018-04-10T02:29:01.074Z,28.30
2018-04-10T02:30:01.020Z,27.20
2018-04-10T02:31:00.976Z,27.80
2018-04-10T02:32:00.899Z,28.40
2018-04-10T02:33:00.838Z,27.40
2018-04-10T02:34:00.771Z,28.20
2018-04-10T02:35:00.698Z,27.80
2018-04-10T02:36:00.638Z,27.40
2018-04-10T02:37:00.577Z,27.10
2018-04-10T02:38:00.508Z,26.90
2018-04-10T02:39:09.081Z,27.80
2018-04-10T02:41:02.394Z,27.10
2018-04-10T02:42:03.480Z,27.20
2018-04-10T02:43:48.992Z,28.30
2018-04-10T02:44:48.923Z,27.20
2018-04-10T02:45:48.836Z,25.40
2018-04-10T02:46:48.766Z,27.90
2018-04-10T02:47:48.707Z,26.80
2018-04-10T02:48:48.644Z,26.80
2018-04-10T02:49:48.580Z,26.40
2018-04-10T02:50:48.515Z,28.40
2018-04-10T02:51:48.455Z,27.90
2018-04-10T02:52:48.400Z,27.90
2018-04-10T02:53:48.328Z,26.70
2018-04-10T02:54:48.268Z,26.70
2018-04-10T02:55:48.206Z,26.50
2018-04-10T02:56:48.141Z,27.30
2018-04-10T02:57:48.079Z,26.70
2018-04-10T02:58:48.018Z,28.80
2018-04-10T02:59:47.953Z,27.70
2018-04-10T03:00:47.890Z,28.10
2018-04-10T03:01:47.829Z,27.40
2018-04-10T03:02:47.761Z,28.20
2018-04-10T03:03:47.701Z,26.80
2018-04-10T03:04:47.644Z,27.30
2018-04-10T03:05:47.573Z,27.70
2018-04-10T03:06:47.517Z,27.20
2018-04-10T03:07:47.457Z,28.10
2018-04-10T03:08:47.383Z,28.60
2018-04-10T03:09:48.026Z,27.40
2018-04-10T03:10:47.272Z,27.70
2018-04-10T03:11:47.193Z,28.00
2018-04-10T03:12:47.139Z,29.50
2018-04-10T03:13:47.092Z,28.20
2018-04-10T03:14:47.018Z,27.80
2018-04-10T03:15:46.995Z,28.00
2018-04-10T03:16:46.892Z,28.20
2018-04-10T03:17:46.829Z,28.10
2018-04-10T03:18:46.763Z,28.70
2018-04-10T03:19:46.696Z,28.60
2018-04-10T03:20:46.648Z,27.80
2018-04-10T03:21:46.572Z,28.60
2018-04-10T03:22:46.504Z,28.10
2018-04-10T03:23:46.440Z,27.20
2018-04-10T03:24:46.384Z,27.70
2018-04-10T03:25:46.320Z,27.40
2018-04-10T03:26:46.253Z,27.90
2018-04-10T03:27:46.201Z,28.60
2018-04-10T03:28:46.128Z,28.90
2018-04-10T03:29:46.065Z,28.30
2018-04-10T03:30:46.004Z,29.40
2018-04-10T03:31:45.940Z,27.20
2018-04-10T03:32:45.872Z,28.40
2018-04-10T03:33:45.814Z,28.30
2018-04-10T03:34:45.750Z,27.00
2018-04-10T03:35:45.690Z,29.20
2018-04-10T03:36:45.646Z,28.40
2018-04-10T03:37:45.566Z,27.60
2018-04-10T03:38:45.500Z,28.10
2018-04-10T03:39:45.465Z,27.30
2018-04-10T03:40:45.376Z,27.60
2018-04-10T03:41:45.314Z,27.70
2018-04-10T03:42:45.246Z,27.90
2018-04-10T03:43:45.187Z,29.10
2018-04-10T03:44:45.125Z,27.90
2018-04-10T03:45:45.061Z,27.30
2018-04-10T03:46:44.994Z,27.80
2018-04-10T03:47:44.937Z,28.50
2018-04-10T03:48:44.877Z,27.30
2018-04-10T03:49:44.816Z,27.70
2018-04-10T03:50:44.743Z,28.40
2018-04-10T03:51:44.684Z,28.00
2018-04-10T03:52:44.613Z,28.50
2018-04-10T03:53:44.557Z,30.30
2018-04-10T03:54:44.488Z,28.90
2018-04-10T03:55:44.456Z,28.00
2018-04-10T03:56:44.373Z,28.70
2018-04-10T03:57:44.305Z,28.40
2018-04-10T03:58:44.237Z,29.00
2018-04-10T03:59:44.177Z,27.60
2018-04-10T04:00:44.123Z,30.90
2018-04-10T04:01:44.046Z,31.50
2018-04-10T04:02:43.991Z,29.00
2018-04-10T04:03:43.925Z,28.70
2018-04-10T04:04:43.867Z,28.30
2018-04-10T04:05:43.798Z,29.30
2018-04-10T04:06:43.736Z,27.90
2018-04-10T04:07:43.685Z,29.40
2018-04-10T04:08:43.610Z,28.50
2018-04-10T04:09:43.547Z,29.60
2018-04-10T04:10:43.502Z,29.50
2018-04-10T04:11:43.420Z,28.70
2018-04-10T04:12:43.356Z,28.70
2018-04-10T04:13:43.289Z,27.80
2018-04-10T04:14:43.229Z,28.70
2018-04-10T04:15:43.165Z,29.50
2018-04-10T04:16:43.104Z,28.30
2018-04-10T04:17:43.040Z,29.20
2018-04-10T04:18:43.556Z,29.10
2018-04-10T04:19:42.912Z,29.00
2018-04-10T04:20:42.851Z,29.00
2018-04-10T04:21:42.790Z,28.70
2018-04-10T04:22:43.547Z,28.20
2018-04-10T04:23:42.676Z,28.00
2018-04-10T04:24:42.604Z,28.50
2018-04-10T04:25:43.046Z,29.00
2018-04-10T04:26:42.471Z,29.30
2018-04-10T04:27:42.410Z,28.50
2018-04-10T04:28:42.353Z,28.80
2018-04-10T04:29:42.286Z,29.90
2018-04-10T04:30:42.220Z,29.00
2018-04-10T04:31:42.155Z,30.00
2018-04-10T04:32:42.104Z,29.30
2018-04-10T04:33:42.025Z,30.20
2018-04-10T04:34:41.965Z,29.10
2018-04-10T04:35:41.921Z,29.00
2018-04-10T04:36:41.839Z,28.30
2018-04-10T04:37:41.771Z,28.50
2018-04-10T04:38:41.713Z,28.30
2018-04-10T04:39:41.646Z,29.10
2018-04-10T04:40:41.590Z,27.60
2018-04-10T04:41:41.528Z,28.70
2018-04-10T04:42:41.459Z,29.50
2018-04-10T04:43:41.403Z,28.50
2018-04-10T04:44:41.333Z,29.00
2018-04-10T04:45:41.275Z,28.60
2018-04-10T04:46:41.214Z,28.70
2018-04-10T04:47:41.143Z,29.00
2018-04-10T04:48:41.089Z,29.60
2018-04-10T04:49:41.020Z,30.00
2018-04-10T04:50:40.954Z,29.30
2018-04-10T04:51:40.899Z,28.10
2018-04-10T04:52:40.827Z,29.90
2018-04-10T04:53:40.767Z,29.70
2018-04-10T04:54:40.720Z,28.10
2018-04-10T04:55:40.640Z,28.60
2018-04-10T04:56:40.572Z,28.20
2018-04-10T04:57:40.549Z,28.60
2018-04-10T04:58:40.456Z,29.30
2018-04-10T04:59:40.436Z,29.90
2018-04-10T05:00:40.325Z,29.60
2018-04-10T05:01:40.278Z,29.80
2018-04-10T05:02:40.206Z,29.80
2018-04-10T05:03:40.139Z,29.50
2018-04-10T05:04:40.073Z,29.60
2018-04-10T05:05:40.018Z,28.90
2018-04-10T05:06:39.959Z,27.90
2018-04-10T05:07:39.890Z,28.60
2018-04-10T05:08:39.816Z,29.90
2018-04-10T05:09:39.755Z,29.70
2018-04-10T05:10:39.706Z,29.00
2018-04-10T05:11:39.627Z,28.60
2018-04-10T05:12:39.568Z,30.70
2018-04-10T05:13:39.513Z,30.60
2018-04-10T05:14:39.439Z,30.50
2018-04-10T05:15:39.382Z,28.60
2018-04-10T05:16:39.316Z,29.20
2018-04-10T05:17:39.253Z,29.80
2018-04-10T05:18:39.195Z,28.80
2018-04-10T05:19:39.131Z,29.70
2018-04-10T05:20:39.061Z,29.70
2018-04-10T05:21:39.003Z,30.70
2018-04-10T05:22:38.940Z,28.70
2018-04-10T05:23:38.880Z,29.30
2018-04-10T05:24:38.818Z,29.40
2018-04-10T05:25:38.762Z,29.10
2018-04-10T05:26:38.701Z,30.60
2018-04-10T05:27:38.625Z,29.20
2018-04-10T05:28:38.561Z,28.50
2018-04-10T05:29:38.504Z,29.90
2018-04-10T05:30:38.442Z,30.80
2018-04-10T05:31:38.371Z,28.60
2018-04-10T05:32:38.310Z,29.60
2018-04-10T05:33:38.247Z,28.50
2018-04-10T05:34:38.186Z,30.30
2018-04-10T05:35:38.124Z,28.80
2018-04-10T05:36:38.056Z,29.20
2018-04-10T05:37:37.991Z,28.60
2018-04-10T05:38:37.931Z,29.10
2018-04-10T05:39:37.869Z,30.10
2018-04-10T05:40:37.808Z,29.80
2018-04-10T05:41:37.743Z,29.90
2018-04-10T05:42:37.679Z,30.70
2018-04-10T05:43:37.617Z,30.00
2018-04-10T05:44:37.557Z,29.60
2018-04-10T05:45:37.494Z,30.60
2018-04-10T05:46:37.431Z,29.60
2018-04-10T05:47:37.369Z,29.80
2018-04-10T05:48:37.317Z,29.20
2018-04-10T05:49:37.242Z,29.60
2018-04-10T05:50:37.175Z,29.70
2018-04-10T05:51:37.187Z,30.30
2018-04-10T05:52:37.059Z,29.60
2018-04-10T05:53:36.993Z,29.30
2018-04-10T05:54:36.929Z,31.10
2018-04-10T05:55:36.875Z,30.80
2018-04-10T05:56:36.805Z,29.10
2018-04-10T05:57:36.774Z,28.90
2018-04-10T05:58:36.688Z,28.40
2018-04-10T05:59:36.617Z,28.90
2018-04-10T06:00:36.584Z,27.70
2018-04-10T06:01:36.582Z,29.20
2018-04-10T06:02:36.432Z,29.20
2018-04-10T06:03:36.362Z,29.80
2018-04-10T06:04:36.310Z,29.60
2018-04-10T06:05:36.242Z,27.60
2018-04-10T06:06:37.075Z,29.10
2018-04-10T06:07:36.117Z,28.90
2018-04-10T06:08:36.052Z,29.90
2018-04-10T06:09:36.002Z,30.00
2018-04-10T06:10:35.939Z,29.50
2018-04-10T06:11:35.867Z,29.50
2018-04-10T06:12:35.802Z,30.10
2018-04-10T06:13:35.830Z,28.70
2018-04-10T06:14:35.681Z,29.30
2018-04-10T06:15:35.657Z,31.00
2018-04-10T06:16:35.555Z,32.50
2018-04-10T06:17:35.495Z,32.80
2018-04-10T06:18:35.432Z,33.40
2018-04-10T06:19:35.381Z,31.00
2018-04-10T06:20:35.305Z,29.50
2018-04-10T06:21:35.242Z,28.60
2018-04-10T06:22:35.184Z,29.10
2018-04-10T06:23:35.119Z,29.30
2018-04-10T06:24:35.061Z,28.20
2018-04-10T06:25:35.015Z,27.70
2018-04-10T06:26:34.932Z,32.40
2018-04-10T06:27:34.870Z,30.10
2018-04-10T06:28:34.813Z,27.50
2018-04-10T06:29:34.750Z,28.60
2018-04-10T06:30:34.720Z,31.00
2018-04-10T06:31:34.622Z,30.00
2018-04-10T06:32:34.558Z,28.00
2018-04-10T06:33:34.504Z,29.90
2018-04-10T06:34:34.437Z,27.80
2018-04-10T06:35:34.373Z,30.20
2018-04-10T06:36:34.317Z,30.40
2018-04-10T06:37:34.269Z,27.60
2018-04-10T06:38:34.189Z,28.00
2018-04-10T06:39:34.125Z,28.40
2018-04-10T06:40:34.068Z,28.10
2018-04-10T06:41:34.012Z,26.60
2018-04-10T06:42:33.941Z,27.60
2018-04-10T06:43:33.898Z,28.30
2018-04-10T06:44:33.827Z,28.80
2018-04-10T06:45:33.753Z,29.10
2018-04-10T06:46:33.698Z,27.20
2018-04-10T06:47:33.649Z,29.60
2018-04-10T06:48:33.598Z,28.90
2018-04-10T06:49:33.512Z,28.40
2018-04-10T06:50:33.497Z,29.30
2018-04-10T06:51:33.389Z,27.00
2018-04-10T06:52:33.322Z,27.80
2018-04-10T06:53:33.269Z,31.40
2018-04-10T06:54:33.203Z,30.30
2018-04-10T06:55:33.690Z,28.00
2018-04-10T06:56:33.079Z,27.40
2018-04-10T06:57:33.019Z,29.50
2018-04-10T06:58:32.954Z,28.20
2018-04-10T06:59:32.899Z,29.50
2018-04-10T07:00:32.841Z,27.70
2018-04-10T07:01:32.779Z,28.90
2018-04-10T07:02:32.717Z,28.10
2018-04-10T07:03:32.645Z,27.90
2018-04-10T07:04:32.586Z,30.40
2018-04-10T07:05:32.529Z,27.90
2018-04-10T07:06:32.465Z,27.20
2018-04-10T07:07:32.402Z,27.10
2018-04-10T07:08:32.343Z,29.00
2018-04-10T07:09:32.282Z,26.70
2018-04-10T07:10:32.226Z,28.00
2018-04-10T07:11:32.173Z,27.40
2018-04-10T07:12:32.094Z,26.90
2018-04-10T07:13:32.040Z,26.70
2018-04-10T07:14:31.978Z,26.00
2018-04-10T07:15:31.914Z,28.60
2018-04-10T07:16:31.859Z,27.30
2018-04-10T07:17:31.791Z,27.10
2018-04-10T07:18:31.731Z,25.40
2018-04-10T07:19:31.835Z,27.50
2018-04-10T07:20:31.608Z,26.30
2018-04-10T07:21:31.549Z,27.20
2018-04-10T07:22:31.491Z,26.00
2018-04-10T07:23:31.441Z,26.80
2018-04-10T07:24:31.358Z,28.20
2018-04-10T07:25:31.512Z,26.60
2018-04-10T07:26:31.240Z,25.30
2018-04-10T07:27:31.400Z,25.30
2018-04-10T07:28:31.124Z,25.40
2018-04-10T07:29:31.269Z,25.40
2018-04-10T07:30:30.994Z,26.60
2018-04-10T07:31:31.095Z,25.90
2018-04-10T07:32:30.877Z,25.90
2018-04-10T07:33:30.824Z,25.90
2018-04-10T07:34:30.841Z,26.70
2018-04-10T07:35:30.698Z,25.80
2018-04-10T07:36:30.853Z,24.50
2018-04-10T07:37:30.569Z,24.70
2018-04-10T07:38:30.726Z,24.00
2018-04-10T07:39:30.452Z,25.10
2018-04-10T07:40:30.404Z,25.80
2018-04-10T07:41:30.339Z,25.10
2018-04-10T07:42:30.469Z,25.50
2018-04-10T07:43:30.308Z,27.20
2018-04-10T07:44:30.148Z,25.70
2018-04-10T07:45:30.298Z,24.80
2018-04-10T07:46:30.031Z,25.30
2018-04-10T07:47:30.194Z,26.10
2018-04-10T07:48:29.907Z,26.10
2018-04-10T07:49:30.079Z,24.50
2018-04-10T07:50:36.627Z,25.10
2018-04-10T07:51:29.939Z,25.30
2018-04-10T07:52:29.692Z,24.50
2018-04-10T07:53:29.819Z,24.80
2018-04-10T07:54:29.729Z,24.90
2018-04-10T07:55:29.498Z,23.30
2018-04-10T07:56:29.579Z,24.60
2018-04-10T07:57:29.367Z,24.30
2018-04-10T07:58:29.463Z,23.10
2018-04-10T07:59:29.243Z,22.80
2018-04-10T08:00:29.382Z,23.20
2018-04-10T08:01:30.123Z,23.20
2018-04-10T08:02:29.296Z,23.00
2018-04-10T08:03:29.022Z,23.30
2018-04-10T08:04:29.151Z,23.30
2018-04-10T08:05:29.101Z,24.80
2018-04-10T08:06:28.824Z,22.60
2018-04-10T08:07:28.943Z,24.10
2018-04-10T08:08:28.738Z,22.20
2018-04-10T08:09:28.719Z,23.50
2018-04-10T08:10:28.583Z,21.80
2018-04-10T08:11:28.731Z,23.40
2018-04-10T08:12:28.466Z,22.00
2018-04-10T08:13:28.622Z,23.20
2018-04-10T08:14:28.357Z,23.30
2018-04-10T08:15:28.473Z,23.20
2018-04-10T08:16:28.437Z,21.40
2018-04-10T08:17:28.164Z,22.80
2018-04-10T08:18:28.301Z,22.50
2018-04-10T08:19:28.048Z,21.80
2018-04-10T08:20:28.158Z,21.70
2018-04-10T08:21:27.928Z,21.10
2018-04-10T08:22:28.046Z,23.20
2018-04-10T08:23:27.805Z,21.90
2018-04-10T08:24:27.953Z,22.30
2018-04-10T08:25:27.686Z,21.90
2018-04-10T08:26:28.750Z,21.30
2018-04-10T08:27:27.728Z,22.80
2018-04-10T08:28:27.559Z,23.70
2018-04-10T08:29:27.651Z,23.10
2018-04-10T08:30:27.384Z,22.90
2018-04-10T08:31:27.541Z,21.60
2018-04-10T08:32:27.268Z,20.70
2018-04-10T08:33:27.207Z,22.40
2018-04-10T08:34:27.142Z,21.60
2018-04-10T08:35:27.095Z,22.40
2018-04-10T08:36:27.081Z,20.70
2018-04-10T08:37:26.968Z,23.10
2018-04-10T08:38:26.914Z,21.90
2018-04-10T08:39:27.620Z,22.10
2018-04-10T08:40:26.788Z,20.50
2018-04-10T08:41:26.739Z,21.60
2018-04-10T08:42:26.682Z,22.30
2018-04-10T08:43:26.616Z,21.60
2018-04-10T08:44:27.204Z,20.70
2018-04-10T08:45:26.494Z,21.50
2018-04-10T08:46:26.608Z,23.10
2018-04-10T08:47:26.374Z,22.90
2018-04-10T08:48:26.531Z,22.40
2018-04-10T08:49:26.259Z,20.00
2018-04-10T08:50:26.327Z,20.20
2018-04-10T08:51:26.135Z,21.90
2018-04-10T08:52:26.269Z,21.60
2018-04-10T08:53:26.178Z,21.10
2018-04-10T08:54:25.964Z,19.10
2018-04-10T08:55:26.086Z,20.70
2018-04-10T08:56:25.839Z,19.90
2018-04-10T08:57:25.944Z,19.50
2018-04-10T08:58:25.719Z,20.40
2018-04-10T08:59:25.788Z,18.80
2018-04-10T09:00:25.608Z,20.30
2018-04-10T09:01:25.704Z,20.20
2018-04-10T09:02:25.482Z,20.30
2018-04-10T09:03:25.544Z,20.20
2018-04-10T09:04:25.578Z,20.40
2018-04-10T09:05:25.307Z,19.80
2018-04-10T09:06:25.464Z,19.90
2018-04-10T09:07:25.190Z,18.60
2018-04-10T09:08:25.326Z,20.00
2018-04-10T09:09:25.069Z,19.60
2018-04-10T09:10:25.075Z,25.20
2018-04-10T09:11:24.950Z,28.00
2018-04-10T09:12:25.847Z,31.50
2018-04-10T09:13:24.842Z,25.10
2018-04-10T09:14:24.775Z,21.50
2018-04-10T09:15:24.939Z,23.00
2018-04-10T09:16:24.663Z,19.60
2018-04-10T09:17:24.718Z,20.10
2018-04-10T09:18:24.548Z,18.90
2018-04-10T09:19:24.480Z,19.20
2018-04-10T09:20:24.424Z,21.20
2018-04-10T09:21:24.364Z,19.40
2018-04-10T09:22:24.301Z,17.00
2018-04-10T09:23:24.243Z,18.20
2018-04-10T09:24:24.192Z,18.30
2018-04-10T09:25:24.132Z,19.40
2018-04-10T09:26:24.074Z,18.60
2018-04-10T09:27:24.010Z,19.40
2018-04-10T09:28:23.948Z,18.20
2018-04-10T09:29:23.888Z,18.00
2018-04-10T09:30:23.835Z,18.60
2018-04-10T09:31:23.770Z,18.00
2018-04-10T09:32:23.719Z,18.60
2018-04-10T09:33:23.660Z,17.90
2018-04-10T09:34:23.606Z,17.30
2018-04-10T09:35:23.544Z,18.80
2018-04-10T09:36:23.479Z,19.10
2018-04-10T09:37:23.425Z,19.30
2018-04-10T09:38:23.363Z,17.70
2018-04-10T09:39:38.156Z,17.60
2018-04-10T09:40:23.407Z,17.10
2018-04-10T09:41:23.206Z,17.40
2018-04-10T09:42:23.130Z,19.30
2018-04-10T09:43:23.070Z,18.60
2018-04-10T09:44:23.025Z,17.10
2018-04-10T09:45:22.976Z,17.20
2018-04-10T09:46:22.909Z,17.60
2018-04-10T09:47:22.845Z,16.70
2018-04-10T09:48:22.784Z,16.50
2018-04-10T09:49:22.729Z,15.90
2018-04-10T09:50:22.657Z,15.40
2018-04-10T09:51:22.619Z,16.70
2018-04-10T09:52:22.549Z,15.70
2018-04-10T09:53:22.489Z,16.90
2018-04-10T09:54:22.425Z,16.60
2018-04-10T09:55:22.383Z,16.30
2018-04-10T09:56:22.312Z,16.00
2018-04-10T09:57:22.255Z,16.00
2018-04-10T09:58:22.203Z,15.10
2018-04-10T09:59:22.136Z,15.80
2018-04-10T10:00:22.075Z,15.60
2018-04-10T10:01:22.018Z,16.80
2018-04-10T10:02:21.958Z,15.90
2018-04-10T10:03:21.906Z,15.80
2018-04-10T10:04:21.844Z,16.00
2018-04-10T10:05:21.793Z,16.00
2018-04-10T10:06:21.729Z,15.40
2018-04-10T10:07:21.672Z,14.20
2018-04-10T10:08:21.613Z,14.50
2018-04-10T10:09:21.555Z,15.60
2018-04-10T10:10:21.495Z,15.10
2018-04-10T10:11:21.442Z,17.20
2018-04-10T10:12:21.378Z,17.30
2018-04-10T10:13:21.330Z,16.00
2018-04-10T10:14:21.264Z,16.10
2018-04-10T10:15:21.205Z,14.90
2018-04-10T10:16:21.150Z,15.90
2018-04-10T10:17:21.134Z,14.60
2018-04-10T10:18:21.039Z,14.60
2018-04-10T10:19:20.977Z,16.00
2018-04-10T10:20:20.923Z,14.40
2018-04-10T10:21:20.853Z,14.90
2018-04-10T10:22:20.841Z,15.50
2018-04-10T10:23:20.744Z,15.10
2018-04-10T10:24:20.692Z,14.80
2018-04-10T10:25:20.629Z,14.80
2018-04-10T10:26:20.566Z,16.00
2018-04-10T10:27:20.508Z,15.20
2018-04-10T10:28:20.452Z,15.20
2018-04-10T10:29:20.396Z,15.30
2018-04-10T10:30:20.337Z,15.20
2018-04-10T10:31:20.287Z,16.20
2018-04-10T10:32:20.220Z,14.60
2018-04-10T10:33:20.163Z,14.50
2018-04-10T10:34:20.102Z,14.60
2018-04-10T10:35:20.052Z,15.00
2018-04-10T10:36:20.003Z,14.80
2018-04-10T10:37:19.932Z,13.30
2018-04-10T10:38:19.874Z,12.30
2018-04-10T10:39:19.817Z,13.30
2018-04-10T10:40:19.755Z,13.90
2018-04-10T10:41:19.695Z,15.30
2018-04-10T10:42:19.644Z,13.70
2018-04-10T10:43:19.588Z,14.50
2018-04-10T10:44:19.532Z,13.20
2018-04-10T10:45:19.460Z,13.40
2018-04-10T10:46:20.158Z,13.70
2018-04-10T10:47:19.348Z,13.10
2018-04-10T10:48:19.298Z,13.90
2018-04-10T10:49:19.237Z,12.50
2018-04-10T10:50:19.179Z,12.90
2018-04-10T10:51:19.119Z,13.30
2018-04-10T10:52:19.062Z,13.80
2018-04-10T10:53:19.006Z,14.40
2018-04-10T10:54:18.951Z,13.70
2018-04-10T10:55:18.899Z,13.80
2018-04-10T10:56:18.834Z,13.60
2018-04-10T10:57:18.775Z,13.70
2018-04-10T10:58:18.719Z,14.40
2018-04-10T10:59:18.658Z,14.00
2018-04-10T11:00:18.607Z,13.70
2018-04-10T11:01:18.551Z,12.50
2018-04-10T11:02:18.530Z,12.70
2018-04-10T11:03:18.446Z,12.50
2018-04-10T11:04:18.368Z,13.00
2018-04-10T11:05:18.317Z,14.00
2018-04-10T11:06:18.261Z,12.90
2018-04-10T11:07:18.208Z,13.30
2018-04-10T11:08:18.148Z,13.50
2018-04-10T11:09:18.101Z,12.70
2018-04-10T11:10:18.032Z,13.60
2018-04-10T11:11:17.981Z,12.10
2018-04-10T11:12:17.920Z,12.70
2018-04-10T11:13:17.866Z,11.00
2018-04-10T11:14:17.812Z,13.00
2018-04-10T11:15:17.755Z,12.40
2018-04-10T11:16:17.700Z,12.30
2018-04-10T11:17:17.676Z,12.40
2018-04-10T11:18:17.594Z,13.70
2018-04-10T11:19:17.536Z,14.00
2018-04-10T11:20:17.485Z,12.40
2018-04-10T11:21:17.431Z,13.60
2018-04-10T11:22:17.379Z,21.10
2018-04-10T11:23:17.766Z,13.00
2018-04-10T11:24:17.269Z,12.70
2018-04-10T11:25:17.211Z,12.90
2018-04-10T11:26:17.162Z,12.40
2018-04-10T11:27:17.118Z,13.60
2018-04-10T11:28:17.063Z,12.80
2018-04-10T11:29:17.009Z,13.50
2018-04-10T11:30:16.963Z,12.60
2018-04-10T11:31:16.904Z,13.00
2018-04-10T11:32:16.853Z,13.30
2018-04-10T11:33:16.815Z,13.70
2018-04-10T11:34:16.757Z,12.70
2018-04-10T11:35:16.698Z,12.40
2018-04-10T11:36:16.655Z,11.50
2018-04-10T11:37:16.606Z,13.00
2018-04-10T11:38:16.548Z,13.80
2018-04-10T11:39:16.495Z,12.70
2018-04-10T11:40:16.456Z,12.70
2018-04-10T11:41:16.402Z,12.50
2018-04-10T11:42:16.366Z,12.50
2018-04-10T11:43:16.329Z,12.10
2018-04-10T11:44:16.263Z,13.00
2018-04-10T11:45:16.198Z,12.70
2018-04-10T11:46:16.160Z,12.40
2018-04-10T11:47:16.111Z,11.90
2018-04-10T11:48:16.058Z,10.80
2018-04-10T11:49:16.012Z,11.60
2018-04-10T11:50:15.959Z,11.40
2018-04-10T11:51:15.914Z,12.00
2018-04-10T11:52:15.869Z,11.40
2018-04-10T11:53:15.824Z,10.60
2018-04-10T11:54:15.776Z,10.70
2018-04-10T11:55:15.733Z,11.30
2018-04-10T11:56:15.683Z,11.10
2018-04-10T11:57:15.635Z,10.60
2018-04-10T11:58:15.595Z,10.50
2018-04-10T11:59:15.543Z,10.30
2018-04-10T12:00:15.514Z,10.90
2018-04-10T12:01:15.453Z,10.40
2018-04-10T12:02:15.404Z,10.00
2018-04-10T12:03:15.366Z,11.00
2018-04-10T12:04:15.315Z,11.10
2018-04-10T12:05:15.276Z,9.90
2018-04-10T12:06:15.250Z,9.80
2018-04-10T12:07:15.181Z,9.90
2018-04-10T12:08:15.164Z,9.70
2018-04-10T12:09:15.091Z,8.60
2018-04-10T12:10:15.048Z,9.10
2018-04-10T12:11:15.003Z,8.50
2018-04-10T12:12:14.962Z,9.70
2018-04-10T12:13:14.915Z,8.30
2018-04-10T12:14:14.870Z,8.80
2018-04-10T12:15:14.831Z,9.20
2018-04-10T12:16:14.778Z,9.20
2018-04-10T12:17:14.737Z,9.20
2018-04-10T12:18:14.709Z,9.40
2018-04-10T12:19:14.657Z,9.70
2018-04-10T12:20:14.607Z,9.30
2018-04-10T12:21:14.565Z,9.50
2018-04-10T12:22:14.528Z,10.00
2018-04-10T12:23:14.474Z,9.50
2018-04-10T12:24:14.457Z,9.70
2018-04-10T12:25:14.388Z,10.00
2018-04-10T12:26:14.349Z,10.30
2018-04-10T12:27:14.306Z,9.80
2018-04-10T12:28:14.257Z,10.50
2018-04-10T12:29:14.225Z,9.60
2018-04-10T12:30:14.176Z,10.00
2018-04-10T12:31:14.140Z,9.80
2018-04-10T12:32:14.100Z,10.20
2018-04-10T12:33:14.053Z,11.40
2018-04-10T12:34:14.009Z,9.70
2018-04-10T12:35:13.960Z,10.20
2018-04-10T12:36:13.929Z,9.70
2018-04-10T12:37:13.882Z,10.40
2018-04-10T12:38:13.837Z,9.80
2018-04-10T12:39:13.806Z,10.70
2018-04-10T12:40:13.749Z,11.30
2018-04-10T12:41:13.712Z,9.90
2018-04-10T12:42:13.665Z,10.80
2018-04-10T12:43:13.618Z,10.20
2018-04-10T12:44:13.574Z,10.80
2018-04-10T12:45:13.537Z,10.70
2018-04-10T12:46:13.513Z,8.90
2018-04-10T12:47:13.449Z,9.60
2018-04-10T12:48:13.411Z,9.80
2018-04-10T12:49:13.365Z,9.20
2018-04-10T12:50:13.323Z,10.30
2018-04-10T12:51:13.285Z,9.50
2018-04-10T12:52:13.243Z,8.80
2018-04-10T12:53:13.196Z,10.00
2018-04-10T12:54:13.155Z,9.90
2018-04-10T12:55:13.128Z,9.70
2018-04-10T12:56:13.072Z,9.80
2018-04-10T12:57:13.033Z,10.70
2018-04-10T12:58:12.986Z,10.20
2018-04-10T12:59:12.945Z,9.90
2018-04-10T13:00:12.900Z,9.50
2018-04-10T13:01:12.860Z,9.50
2018-04-10T13:02:12.849Z,8.70
2018-04-10T13:03:12.775Z,9.80
2018-04-10T13:04:12.736Z,8.00
2018-04-10T13:05:12.704Z,8.90